createdAt,value
2022-10-15T00:01:46.175Z,101291.52
2022-10-15T00:04:36.853Z,101292.66
2022-10-15T00:07:27.030Z,101288.52
2022-10-15T00:10:18.311Z,101284.86
2022-10-15T00:13:08.581Z,101278.42
2022-10-15T00:15:58.249Z,101279.06
2022-10-15T00:18:50.454Z,101282.58
2022-10-15T00:21:40.336Z,101285.44
2022-10-15T00:24:30.457Z,101281.96
2022-10-15T00:27:20.713Z,101279.85
2022-10-15T00:30:12.770Z,101278.83
2022-10-15T00:33:02.812Z,101275.80
2022-10-15T00:36:01.650Z,101268.34
2022-10-15T00:38:52.777Z,101269.90
2022-10-15T00:41:45.428Z,101269.86
2022-10-15T00:44:55.480Z,101270.13
2022-10-15T00:47:48.929Z,101266.19
2022-10-15T00:50:42.256Z,101263.42
2022-10-15T00:53:32.510Z,101265.19
2022-10-15T00:56:25.603Z,101265.39
2022-10-15T00:59:18.103Z,101266.09
2022-10-15T01:02:10.126Z,101264.95
2022-10-15T01:05:00.822Z,101262.80
2022-10-15T01:07:50.789Z,101260.22
2022-10-15T01:10:51.877Z,101257.83
2022-10-15T01:13:52.798Z,101255.86
2022-10-15T01:16:50.567Z,101255.21
2022-10-15T01:20:13.438Z,101254.64
2022-10-15T01:23:25.945Z,101253.80
2022-10-15T01:26:51.897Z,101254.98
2022-10-15T01:29:58.226Z,101254.58
2022-10-15T01:32:54.760Z,101252.45
2022-10-15T01:35:55.963Z,101249.84
2022-10-15T01:38:56.960Z,101243.85
2022-10-15T01:41:53.804Z,101248.63
2022-10-15T01:44:50.453Z,101246.35
2022-10-15T01:48:05.059Z,101242.80
2022-10-15T01:50:59.601Z,101237.36
2022-10-15T01:53:51.376Z,101236.49
2022-10-15T01:56:42.127Z,101238.29
2022-10-15T01:59:34.995Z,101235.66
2022-10-15T02:02:26.332Z,101236.66
2022-10-15T02:05:22.123Z,101237.42
2022-10-15T02:08:27.070Z,101234.25
2022-10-15T02:11:20.421Z,101234.25
2022-10-15T02:14:16.856Z,101239.03
2022-10-15T02:17:10.716Z,101243.17
2022-10-15T02:20:06.312Z,101238.50
2022-10-15T02:23:03.293Z,101235.59
2022-10-15T02:25:56.119Z,101235.66
2022-10-15T02:28:51.841Z,101227.23
2022-10-15T02:31:44.811Z,101223.45
2022-10-15T02:34:36.076Z,101228.71
2022-10-15T02:37:31.097Z,101227.36
2022-10-15T02:40:23.133Z,101223.88
2022-10-15T02:43:17.396Z,101225.58
2022-10-15T02:46:09.863Z,101224.63
2022-10-15T02:49:01.021Z,101221.96
2022-10-15T02:51:52.891Z,101224.76
2022-10-15T02:54:43.226Z,101221.73
2022-10-15T02:57:34.319Z,101218.65
2022-10-15T03:00:25.205Z,101214.52
2022-10-15T03:03:15.683Z,101214.14
2022-10-15T03:06:08.420Z,101210.58
2022-10-15T03:08:58.249Z,101209.44
2022-10-15T03:11:48.419Z,101210.54
2022-10-15T03:14:39.017Z,101208.12
2022-10-15T03:17:29.961Z,101205.01
2022-10-15T03:20:21.808Z,101206.99
2022-10-15T03:23:11.728Z,101213.80
2022-10-15T03:26:02.229Z,101229.87
2022-10-15T03:28:52.959Z,101239.42
2022-10-15T03:31:55.139Z,101234.35
2022-10-15T03:34:44.780Z,101230.67
2022-10-15T03:37:36.510Z,101223.90
2022-10-15T03:40:29.668Z,101217.45
2022-10-15T03:43:24.928Z,101211.86
2022-10-15T03:46:16.121Z,101207.45
2022-10-15T03:49:08.394Z,101206.62
2022-10-15T03:51:58.628Z,101207.52
2022-10-15T03:54:49.160Z,101210.88
2022-10-15T03:57:42.303Z,101211.58
2022-10-15T04:00:32.399Z,101214.42
2022-10-15T04:03:25.190Z,101215.40
2022-10-15T04:06:16.248Z,101209.92
2022-10-15T04:09:06.136Z,101207.26
2022-10-15T04:11:56.057Z,101208.98
2022-10-15T04:14:47.133Z,101214.26
2022-10-15T04:17:37.454Z,101213.20
2022-10-15T04:20:27.530Z,101208.98
2022-10-15T04:23:18.860Z,101206.50
2022-10-15T04:26:28.599Z,101206.63
2022-10-15T04:29:21.224Z,101201.98
2022-10-15T04:32:15.463Z,101205.70
2022-10-15T04:35:06.341Z,101208.88
2022-10-15T04:38:12.695Z,101211.19
2022-10-15T04:41:18.328Z,101210.96
2022-10-15T04:44:25.311Z,101213.29
2022-10-15T04:47:19.019Z,101209.98
2022-10-15T04:50:15.424Z,101212.80
2022-10-15T04:53:24.283Z,101217.48
2022-10-15T04:56:18.046Z,101218.54
2022-10-15T04:59:11.222Z,101217.45
2022-10-15T05:02:19.052Z,101217.24
2022-10-15T05:05:12.845Z,101215.62
2022-10-15T05:08:11.547Z,101212.86
2022-10-15T05:11:21.072Z,101209.49
2022-10-15T05:14:10.727Z,101211.29
2022-10-15T05:17:01.642Z,101210.59
2022-10-15T05:19:51.933Z,101207.61
2022-10-15T05:22:45.844Z,101208.02
2022-10-15T05:25:36.617Z,101210.38
2022-10-15T05:28:27.582Z,101208.09
2022-10-15T05:31:20.228Z,101208.31
2022-10-15T05:34:11.144Z,101209.64
2022-10-15T05:37:07.944Z,101208.79
2022-10-15T05:39:57.420Z,101208.77
2022-10-15T05:45:49.419Z,101207.02
2022-10-15T05:48:39.741Z,101204.02
2022-10-15T05:51:30.545Z,101198.33
2022-10-15T05:54:26.055Z,101198.86
2022-10-15T05:57:16.159Z,101201.55
2022-10-15T06:00:08.525Z,101197.20
2022-10-15T06:03:04.701Z,101197.91
2022-10-15T06:05:55.809Z,101201.91
2022-10-15T06:08:46.225Z,101205.59
2022-10-15T06:11:37.844Z,101210.92
2022-10-15T06:14:28.138Z,101214.29
2022-10-15T06:17:18.081Z,101219.41
2022-10-15T06:20:14.764Z,101220.14
2022-10-15T06:23:06.105Z,101223.92
2022-10-15T06:25:56.655Z,101233.42
2022-10-15T06:28:46.878Z,101243.86
2022-10-15T06:31:36.623Z,101247.33
2022-10-15T06:34:26.348Z,101248.31
2022-10-15T06:37:16.282Z,101253.63
2022-10-15T06:40:07.144Z,101260.66
2022-10-15T06:43:07.979Z,101268.38
2022-10-15T06:46:00.305Z,101270.17
2022-10-15T06:48:51.925Z,101275.31
2022-10-15T06:51:42.567Z,101274.62
2022-10-15T06:54:32.830Z,101277.80
2022-10-15T06:57:25.927Z,101278.73
2022-10-15T07:00:17.610Z,101281.73
2022-10-15T07:03:08.927Z,101280.94
2022-10-15T07:06:02.804Z,101283.79
2022-10-15T07:08:53.294Z,101288.16
2022-10-15T07:11:43.592Z,101291.77
2022-10-15T07:14:37.534Z,101293.94
2022-10-15T07:17:31.676Z,101292.63
2022-10-15T07:20:24.564Z,101290.99
2022-10-15T07:23:14.800Z,101290.51
2022-10-15T07:26:05.156Z,101289.69
2022-10-15T07:28:54.895Z,101290.31
2022-10-15T07:34:41.736Z,101288.50
2022-10-15T07:37:31.939Z,101284.19
2022-10-15T07:40:22.307Z,101285.14
2022-10-15T07:43:12.188Z,101290.67
2022-10-15T07:46:03.723Z,101293.23
2022-10-15T07:48:53.784Z,101292.72
2022-10-15T07:51:44.021Z,101290.52
2022-10-15T07:54:35.647Z,101290.83
2022-10-15T07:57:25.872Z,101289.94
2022-10-15T08:00:17.845Z,101291.56
2022-10-15T08:03:08.088Z,101293.18
2022-10-15T08:06:01.060Z,101290.06
2022-10-15T08:08:51.863Z,101295.29
2022-10-15T08:11:41.735Z,101297.63
2022-10-15T08:14:33.407Z,101306.88
2022-10-15T08:17:23.539Z,101308.70
2022-10-15T08:20:14.592Z,101314.41
2022-10-15T08:23:04.808Z,101314.63
2022-10-15T08:25:54.956Z,101313.89
2022-10-15T08:28:45.290Z,101313.98
2022-10-15T08:31:35.519Z,101312.52
2022-10-15T08:34:26.006Z,101312.78
2022-10-15T08:37:15.981Z,101312.48
2022-10-15T08:40:06.833Z,101314.08
2022-10-15T08:42:57.528Z,101312.61
2022-10-15T08:45:48.909Z,101314.91
2022-10-15T08:48:43.105Z,101315.78
2022-10-15T08:51:39.914Z,101314.08
2022-10-15T08:54:37.881Z,101317.46
2022-10-15T08:57:37.986Z,101317.87
2022-10-15T09:00:32.842Z,101321.36
2022-10-15T09:03:40.052Z,101327.60
2022-10-15T09:06:35.830Z,101327.53
2022-10-15T09:09:32.853Z,101328.37
2022-10-15T09:12:37.940Z,101333.08
2022-10-15T09:15:32.324Z,101336.22
2022-10-15T09:18:26.079Z,101335.91
2022-10-15T09:21:17.714Z,101333.84
2022-10-15T09:24:11.865Z,101330.73
2022-10-15T09:27:11.110Z,101332.19
2022-10-15T09:30:14.377Z,101335.83
2022-10-15T09:33:11.137Z,101339.11
2022-10-15T09:36:08.922Z,101339.17
2022-10-15T09:39:12.518Z,101337.80
2022-10-15T09:42:15.192Z,101342.36
2022-10-15T09:45:08.273Z,101339.35
2022-10-15T09:48:03.078Z,101337.61
2022-10-15T09:51:01.130Z,101338.50
2022-10-15T09:54:00.715Z,101336.13
2022-10-15T09:56:55.432Z,101335.58
2022-10-15T09:59:57.554Z,101337.95
2022-10-15T10:03:04.965Z,101338.44
2022-10-15T10:06:03.783Z,101341.48
2022-10-15T10:09:01.355Z,101337.80
2022-10-15T10:11:54.669Z,101338.63
2022-10-15T10:14:53.735Z,101341.08
2022-10-15T10:17:55.413Z,101341.09
2022-10-15T10:20:59.062Z,101344.14
2022-10-15T10:23:48.914Z,101342.83
2022-10-15T10:26:39.384Z,101342.39
2022-10-15T10:29:34.987Z,101343.02
2022-10-15T10:32:29.448Z,101337.48
2022-10-15T10:35:24.977Z,101341.93
2022-10-15T10:38:24.371Z,101344.08
2022-10-15T10:41:14.843Z,101344.61
2022-10-15T10:44:04.754Z,101341.18
2022-10-15T10:47:13.222Z,101338.83
2022-10-15T10:50:03.281Z,101335.50
2022-10-15T10:52:53.466Z,101331.42
2022-10-15T10:55:44.626Z,101331.12
2022-10-15T10:58:37.509Z,101331.93
2022-10-15T11:01:28.592Z,101328.52
2022-10-15T11:04:25.159Z,101323.20
2022-10-15T11:07:24.518Z,101324.55
2022-10-15T11:10:24.909Z,101321.19
2022-10-15T11:13:32.409Z,101322.21
2022-10-15T11:16:34.329Z,101324.11
2022-10-15T11:19:59.584Z,101320.11
2022-10-15T11:23:03.481Z,101319.98
2022-10-15T11:26:00.261Z,101321.30
2022-10-15T11:28:59.717Z,101321.89
2022-10-15T11:32:02.644Z,101323.07
2022-10-15T11:35:34.544Z,101316.60
2022-10-15T11:38:39.696Z,101313.44
2022-10-15T11:41:49.099Z,101314.71
2022-10-15T11:44:56.797Z,101315.41
2022-10-15T11:47:56.298Z,101317.89
2022-10-15T11:50:52.953Z,101316.48
2022-10-15T11:54:20.047Z,101315.70
2022-10-15T11:57:14.437Z,101313.85
2022-10-15T12:00:14.131Z,101312.41
2022-10-15T12:03:15.801Z,101310.59
2022-10-15T12:06:09.842Z,101306.84
2022-10-15T12:09:04.591Z,101303.22
2022-10-15T12:12:04.297Z,101297.90
2022-10-15T12:15:13.953Z,101300.49
2022-10-15T12:18:11.883Z,101299.23
2022-10-15T12:21:01.548Z,101298.48
2022-10-15T12:23:50.973Z,101295.89
2022-10-15T12:26:40.874Z,101294.61
2022-10-15T12:29:31.158Z,101298.61
2022-10-15T12:32:26.945Z,101297.78
2022-10-15T12:35:30.057Z,101290.82
2022-10-15T12:38:29.463Z,101289.91
2022-10-15T12:41:19.467Z,101286.75
2022-10-15T12:44:19.320Z,101281.84
2022-10-15T12:47:13.514Z,101284.96
2022-10-15T12:50:07.346Z,101286.66
2022-10-15T12:53:01.642Z,101283.24
2022-10-15T12:56:22.396Z,101280.89
2022-10-15T12:59:53.563Z,101278.17
2022-10-15T13:02:47.134Z,101282.41
2022-10-15T13:05:40.848Z,101284.79
2022-10-15T13:08:31.913Z,101284.33
2022-10-15T13:11:26.267Z,101280.96
2022-10-15T13:14:24.872Z,101282.56
2022-10-15T13:17:20.151Z,101282.69
2022-10-15T13:20:31.838Z,101282.11
2022-10-15T13:23:32.520Z,101281.07
2022-10-15T13:26:26.934Z,101280.88
2022-10-15T13:29:20.115Z,101283.40
2022-10-15T13:32:16.302Z,101278.36
2022-10-15T13:35:13.323Z,101272.75
2022-10-15T13:38:04.773Z,101269.11
2022-10-15T13:40:56.063Z,101271.52
2022-10-15T13:43:58.687Z,101275.29
2022-10-15T13:46:48.737Z,101273.20
2022-10-15T13:49:38.510Z,101269.48
2022-10-15T13:52:28.640Z,101266.52
2022-10-15T13:55:25.035Z,101265.00
2022-10-15T13:58:24.877Z,101262.35
2022-10-15T14:01:21.308Z,101259.73
2022-10-15T14:04:19.137Z,101263.38
2022-10-15T14:07:24.969Z,101262.48
2022-10-15T14:10:15.789Z,101264.38
2022-10-15T14:13:06.231Z,101272.72
2022-10-15T14:16:21.313Z,101272.92
2022-10-15T14:19:19.082Z,101275.19
2022-10-15T14:22:08.961Z,101280.05
2022-10-15T14:24:59.608Z,101281.15
2022-10-15T14:27:49.777Z,101280.06
2022-10-15T14:30:42.911Z,101281.45
2022-10-15T14:33:46.334Z,101285.23
2022-10-15T14:36:44.578Z,101289.14
2022-10-15T14:39:36.526Z,101290.94
2022-10-15T14:42:33.162Z,101285.98
2022-10-15T14:45:28.461Z,101284.04
2022-10-15T14:48:24.460Z,101285.05
2022-10-15T14:51:26.765Z,101284.13
2022-10-15T14:54:24.642Z,101284.98
2022-10-15T14:57:22.522Z,101284.13
2022-10-15T15:00:23.475Z,101285.06
2022-10-15T15:03:19.458Z,101276.91
2022-10-15T15:06:10.836Z,101275.22
2022-10-15T15:09:00.917Z,101277.41
2022-10-15T15:11:50.981Z,101280.13
2022-10-15T15:14:41.358Z,101279.02
2022-10-15T15:17:32.753Z,101276.91
2022-10-15T15:20:25.420Z,101273.27
2022-10-15T15:23:19.809Z,101278.20
2022-10-15T15:26:10.055Z,101278.73
2022-10-15T15:28:59.867Z,101279.00
2022-10-15T15:31:51.805Z,101282.33
2022-10-15T15:34:42.550Z,101286.81
2022-10-15T15:37:32.641Z,101290.86
2022-10-15T15:40:23.589Z,101289.77
2022-10-15T15:43:16.370Z,101290.52
2022-10-15T15:46:07.116Z,101287.12
2022-10-15T15:48:59.025Z,101286.40
2022-10-15T15:51:49.198Z,101290.85
2022-10-15T15:54:39.222Z,101291.92
2022-10-15T15:57:29.376Z,101289.55
2022-10-15T16:00:19.937Z,101289.95
2022-10-15T16:03:10.980Z,101294.69
2022-10-15T16:06:00.799Z,101300.23
2022-10-15T16:08:52.052Z,101304.62
2022-10-15T16:11:42.137Z,101308.96
2022-10-15T16:14:32.978Z,101309.33
2022-10-15T16:17:24.331Z,101311.58
2022-10-15T16:20:15.400Z,101314.09
2022-10-15T16:23:05.875Z,101313.59
2022-10-15T16:25:57.689Z,101313.44
2022-10-15T16:28:47.174Z,101315.50
2022-10-15T16:31:37.673Z,101317.13
2022-10-15T16:34:27.578Z,101324.86
2022-10-15T16:37:17.900Z,101328.98
2022-10-15T16:40:09.698Z,101330.27
2022-10-15T16:42:59.468Z,101334.38
2022-10-15T16:45:58.109Z,101335.31
2022-10-15T16:48:53.373Z,101334.85
2022-10-15T16:51:44.524Z,101338.80
2022-10-15T16:54:34.191Z,101342.20
2022-10-15T16:57:25.108Z,101347.05
2022-10-15T17:00:17.129Z,101347.86
2022-10-15T17:03:07.732Z,101349.61
2022-10-15T17:06:01.716Z,101349.89
2022-10-15T17:08:54.231Z,101349.88
2022-10-15T17:11:46.995Z,101348.77
2022-10-15T17:14:37.061Z,101351.85
2022-10-15T17:17:27.213Z,101356.86
2022-10-15T17:20:17.408Z,101361.83
2022-10-15T17:23:08.894Z,101367.47
2022-10-15T17:26:03.508Z,101371.77
2022-10-15T17:28:54.236Z,101373.75
2022-10-15T17:31:44.459Z,101376.07
2022-10-15T17:34:34.431Z,101382.18
2022-10-15T17:37:24.554Z,101388.77
2022-10-15T17:40:16.096Z,101397.91
2022-10-15T17:43:05.729Z,101399.84
2022-10-15T17:46:02.911Z,101407.11
2022-10-15T17:48:53.389Z,101407.98
2022-10-15T17:51:43.120Z,101409.91
2022-10-15T17:54:33.632Z,101414.92
2022-10-15T17:57:24.013Z,101418.44
2022-10-15T18:00:17.723Z,101417.97
2022-10-15T18:03:07.675Z,101420.52
2022-10-15T18:05:57.916Z,101419.41
2022-10-15T18:08:48.037Z,101423.02
2022-10-15T18:11:38.200Z,101423.16
2022-10-15T18:14:28.474Z,101424.51
2022-10-15T18:17:19.112Z,101427.68
2022-10-15T18:20:10.024Z,101429.19
2022-10-15T18:22:59.654Z,101433.05
2022-10-15T18:26:01.069Z,101438.21
2022-10-15T18:28:53.188Z,101437.64
2022-10-15T18:31:43.237Z,101440.38
2022-10-15T18:34:33.774Z,101441.65
2022-10-15T18:37:24.316Z,101440.12
2022-10-15T18:40:15.887Z,101443.45
2022-10-15T18:43:07.046Z,101447.30
2022-10-15T18:45:57.495Z,101451.88
2022-10-15T18:48:48.231Z,101453.95
2022-10-15T18:51:38.943Z,101456.94
2022-10-15T18:54:30.974Z,101455.39
2022-10-15T18:57:21.201Z,101450.88
2022-10-15T19:00:13.727Z,101454.33
2022-10-15T19:03:04.595Z,101455.04
2022-10-15T19:05:54.969Z,101457.56
2022-10-15T19:08:45.557Z,101460.32
2022-10-15T19:11:36.148Z,101464.58
2022-10-15T19:14:29.218Z,101468.31
2022-10-15T19:17:19.203Z,101465.07
2022-10-15T19:20:11.303Z,101465.77
2022-10-15T19:23:01.637Z,101470.64
2022-10-15T19:25:51.588Z,101471.16
2022-10-15T19:28:42.199Z,101471.39
2022-10-15T19:31:34.076Z,101472.95
2022-10-15T19:34:24.128Z,101477.41
2022-10-15T19:37:13.842Z,101479.85
2022-10-15T19:40:12.767Z,101481.90
2022-10-15T19:43:02.783Z,101484.77
2022-10-15T19:45:56.031Z,101488.60
2022-10-15T19:48:45.936Z,101492.25
2022-10-15T19:51:36.082Z,101496.84
2022-10-15T19:57:20.666Z,101503.89
2022-10-15T20:00:13.038Z,101507.98
2022-10-15T20:03:02.845Z,101510.65
2022-10-15T20:05:52.578Z,101512.19
2022-10-15T20:08:42.110Z,101509.00
2022-10-15T20:11:31.600Z,101512.15
2022-10-15T20:14:21.689Z,101512.85
2022-10-15T20:17:11.668Z,101517.23
2022-10-15T20:20:01.521Z,101518.43
2022-10-15T20:22:51.523Z,101525.98
2022-10-15T20:25:41.455Z,101534.84
2022-10-15T20:28:31.477Z,101541.38
2022-10-15T20:31:28.406Z,101542.68
2022-10-15T20:34:18.586Z,101549.20
2022-10-15T20:37:08.776Z,101552.77
2022-10-15T20:40:00.223Z,101549.83
2022-10-15T20:42:50.382Z,101546.48
2022-10-15T20:45:45.898Z,101547.91
2022-10-15T20:48:36.232Z,101554.52
2022-10-15T20:51:28.612Z,101555.00
2022-10-15T20:54:20.272Z,101552.74
2022-10-15T20:57:10.995Z,101558.72
2022-10-15T21:00:01.010Z,101562.65
2022-10-15T21:02:50.775Z,101565.42
2022-10-15T21:05:41.075Z,101573.07
2022-10-15T21:08:30.691Z,101570.25
2022-10-15T21:11:20.676Z,101571.54
2022-10-15T21:14:12.305Z,101575.33
2022-10-15T21:17:02.404Z,101574.63
2022-10-15T21:19:52.985Z,101569.94
2022-10-15T21:22:43.808Z,101573.70
2022-10-15T21:25:34.237Z,101576.49
2022-10-15T21:28:24.694Z,101582.20
2022-10-15T21:31:17.640Z,101585.90
2022-10-15T21:34:07.377Z,101587.75
2022-10-15T21:36:58.218Z,101593.36
2022-10-15T21:39:48.077Z,101602.73
2022-10-15T21:42:38.384Z,101606.63
2022-10-15T21:45:28.709Z,101607.73
2022-10-15T21:48:19.076Z,101605.42
2022-10-15T21:51:13.885Z,101607.89
2022-10-15T21:54:06.049Z,101611.54
2022-10-15T21:56:56.343Z,101610.67
2022-10-15T21:59:46.249Z,101616.52
2022-10-15T22:02:36.491Z,101611.02
2022-10-15T22:05:26.721Z,101616.48
2022-10-15T22:08:17.098Z,101624.40
2022-10-15T22:11:15.851Z,101627.66
2022-10-15T22:14:08.302Z,101628.31
2022-10-15T22:16:57.871Z,101624.20
2022-10-15T22:19:47.784Z,101626.65
2022-10-15T22:22:38.164Z,101624.30
2022-10-15T22:25:28.539Z,101621.59
2022-10-15T22:28:18.794Z,101623.19
2022-10-15T22:31:12.438Z,101621.86
2022-10-15T22:34:02.940Z,101624.26
2022-10-15T22:36:53.838Z,101625.30
2022-10-15T22:39:43.684Z,101622.30
2022-10-15T22:42:33.840Z,101623.36
2022-10-15T22:45:24.759Z,101624.45
2022-10-15T22:48:15.734Z,101620.64
2022-10-15T22:51:08.723Z,101625.54
2022-10-15T22:54:00.713Z,101627.23
2022-10-15T22:56:50.883Z,101633.68
2022-10-15T22:59:43.833Z,101636.36
2022-10-15T23:02:34.199Z,101636.30
2022-10-15T23:05:24.400Z,101636.59
2022-10-15T23:08:14.690Z,101636.18
2022-10-15T23:11:12.994Z,101639.98
2022-10-15T23:14:06.255Z,101639.98
2022-10-15T23:16:56.381Z,101639.48
2022-10-15T23:19:46.506Z,101636.50
2022-10-15T23:22:36.552Z,101638.02
2022-10-15T23:25:26.476Z,101640.05
2022-10-15T23:28:16.122Z,101644.60
2022-10-15T23:31:05.813Z,101644.21
2022-10-15T23:33:57.602Z,101640.98
2022-10-15T23:36:47.716Z,101642.77
2022-10-15T23:39:37.927Z,101642.13
2022-10-15T23:42:27.611Z,101643.55
2022-10-15T23:45:17.801Z,101643.70
2022-10-15T23:48:08.692Z,101646.47
2022-10-15T23:51:02.494Z,101649.98
2022-10-15T23:53:54.434Z,101652.31
2022-10-15T23:56:45.015Z,101649.89
2022-10-15T23:59:34.993Z,101654.13
